Terminal Aerodrome Forecast
Issued by NWS Portland, OR

Home | Current Version | Previous Version | Text Only | Print | Product List | Glossary On
Versions: 1 2 3 4 5 6 7 8 9 10 11 12 13 14 15 16 17 18 19 20 21 22 23 24
000
FTUS46 KPQR 191759
TAFAST
TAF
KAST 191759Z 1918/2018 10007KT P6SM BKN250
     FM192000 18010G20KT P6SM SCT030 OVC050
     FM192300 19015G30KT 6SM -RA BR BKN030 OVC050
     FM200100 20030G40KT 3SM RA BR SCT008 OVC015
     FM200400 21015G30KT 2SM RA BR BKN008 OVC015
     FM200600 23010G20KT 5SM -RA BR BKN008 OVC015
     FM201000 28007KT P6SM -SHRA SCT008 BKN015=

USA.gov is the U.S. government's official web portal to all federal, state and local government web resources and services.